Details From LIEE - Cagliari Elmas
To LCLK - Larnaca
Flight Number -
Tags Generated
Created
Modified
Stats Distance 1,203 nm / 2,227 km
Max Altitude 0 ft / 0 m
Waypoints 5
Social Downloads 12
Likes 0
Share VATSIM

Download

Looking for another format? Having issues loading an existing format? Contact us
Advertisement - Login to hide

Notes

Generated

Route

LIEE VAKOR PELAG SOLAB LCLK

ID Type Via Altitude Latitude Longitude Leg Dist Tot Dist Heading (true) Name
O LIEE APT - 0 ft / 0 m 39.26081˚ 9.04347˚ - 0 nm - -
VAKOR FIX - 0 ft / 0 m 38.83611˚ 14.15361˚ 239 nm 239 nm 94° / 98° -
PELAG FIX - 0 ft / 0 m 37.32162˚ 23.77965˚ 463 nm 703 nm 98° / 104° -
SOLAB FIX - 0 ft / 0 m 34.96167˚ 33.32167˚ 483 nm 1187 nm 104° / 110° -
O LCLK APT - 0 ft / 0 m 34.86568˚ 33.61326˚ 15 nm 1202 nm 112° / 112° -

Altitude Profile

Advertisement - Login to hide

Weather


0- 5 10 15 20 25 30 35+ Temperature / ° C

Clouds and Precipitation
Forecast for 2018-05-28 00:00 UTC. Updated 28 minutes ago

Ground ~20,000 ft ~40,000 ft Winds

LIEE

Details ICAO LIEE (CAG)
Name Cagliari Elmas
Region Italy
Timezone Europe/Rome (UTC+2.0)
Stats Elevation 13 ft / 4 m (AMSL)
Location 39.251475° 9.054291°
Runways 1
Magnetic Variation 2.344° E

METAR

LIEE 272320Z 20007KT CAVOK 21/17 Q1017

Decode

TAF

TAF LIEE 271700Z 2718/2818 VRB04KT CAVOK BECMG TEMPO 2802/2806 RA BECMG 2808/2810 17013KT

Decode

Departure Runways

ID Width Length Bearing (true) Bearing (mag) Surface Threshold Offset Overrun Length
14 148 ft / 45 m 9,157 ft / 2,791 m 138.08° 135.74° Asphalt 0 ft / 0 m 187 ft / 57 m
32 148 ft / 45 m 9,157 ft / 2,791 m 318.09° 315.75° Asphalt 0 ft / 0 m 0 ft / 0 m

LCLK

Details ICAO LCLK (LCA)
Name Larnaca
Region Cyprus
Timezone Asia/Nicosia (UTC+3.0)
Stats Elevation 8 ft / 2 m (AMSL)
Location 34.875115° 33.624832°
Runways 1
Magnetic Variation 5.029° E

METAR

LCLK 272330Z VRB01KT CAVOK 21/20 Q1010 NOSIG

Decode

TAF

TAF LCLK 271730Z 2718/2818 33007KT 9999 FEW020 BECMG 2810/2813 20013KT

Decode

Destination Runways

ID Width Length Bearing (true) Bearing (mag) Surface Threshold Offset Overrun Length
04 148 ft / 45 m 9,771 ft / 2,978 m 45.15° 40.12° Asphalt 0 ft / 0 m 210 ft / 64 m
22 148 ft / 45 m 9,771 ft / 2,978 m 225.17° 220.14° Asphalt 575 ft / 175 m 0 ft / 0 m

Approach Navaids

Runway Type Ident Frequency Range Bearing (true) Bearing (mag) Slope Elevation
22 Localiser ILC 110.30 MHz 18 nm / 33 km 225.17° 220.14° - 8 ft / 2 m (AMSL)
22 Glidescope ILC 110.30 MHz 10 nm / 19 km 225.16° 220.13° 2.75° 24 ft / 7 m (AMSL)
22 DME ILC 110.30 MHz 18 nm / 33 km - - - 20 ft / 6 m (AMSL)